Time;durP1;ratioP1;P1;durP2;ratioP2;P2;SDS_P1;SDS_P2;PMS_P1;PMS_P2;Temp;Humidity;BMP_temperature;BMP_pressure;BME280_temperature;BME280_humidity;BME280_pressure;Samples;Min_cycle;Max_cycle;Signal;HPM_P1;HPM_P2
2022/10/19 00:00:48;;;;;;;12.57;9.15;;;9.20;99.90;;;;;;4332147;28;9999964;-75
2022/10/19 00:03:15;;;;;;;12.55;9.43;;;9.20;99.90;;;;;;5018934;28;20625;-76
2022/10/19 00:05:40;;;;;;;11.15;8.85;;;9.10;99.90;;;;;;5027234;28;20025;-75
2022/10/19 00:08:06;;;;;;;11.35;9.80;;;9.10;99.90;;;;;;5028643;28;20022;-76
2022/10/19 00:10:32;;;;;;;20.17;10.25;;;9.10;99.90;;;;;;5028049;28;20074;-77
2022/10/19 00:12:58;;;;;;;10.38;9.27;;;9.10;99.90;;;;;;5031610;28;20030;-76
2022/10/19 00:15:24;;;;;;;9.65;7.97;;;9.00;99.90;;;;;;5027138;28;20079;-76
2022/10/19 00:17:49;;;;;;;12.20;8.27;;;9.00;99.90;;;;;;5031941;28;20033;-76
2022/10/19 00:20:15;;;;;;;13.40;7.63;;;9.00;99.90;;;;;;5031509;28;20025;-76
2022/10/19 00:22:40;;;;;;;62.55;9.43;;;9.00;99.90;;;;;;5033046;28;20025;-76
2022/10/19 00:25:07;;;;;;;27.70;9.00;;;9.00;99.90;;;;;;5034985;28;20033;-76
2022/10/19 00:27:32;;;;;;;14.65;8.48;;;9.00;99.90;;;;;;5034507;28;20445;-76
2022/10/19 00:29:58;;;;;;;18.55;9.10;;;9.00;99.90;;;;;;5028433;28;20037;-76
2022/10/19 00:32:24;;;;;;;48.83;9.98;;;9.00;99.90;;;;;;5032816;28;20262;-76
2022/10/19 00:34:49;;;;;;;9.50;8.60;;;8.90;99.90;;;;;;5034087;28;20507;-76
2022/10/19 00:37:15;;;;;;;9.20;8.25;;;8.90;99.90;;;;;;5032822;28;20021;-76
2022/10/19 00:39:40;;;;;;;19.80;9.13;;;9.00;99.90;;;;;;5036117;28;20385;-75
2022/10/19 00:42:11;;;;;;;12.30;9.77;;;9.00;99.90;;;;;;5041216;28;20047;-76
2022/10/19 00:44:36;;;;;;;13.10;9.18;;;9.00;99.90;;;;;;5030937;28;20072;-76
2022/10/19 00:47:06;;;;;;;12.00;8.95;;;9.00;99.90;;;;;;5032357;28;20069;-76
2022/10/19 00:49:36;;;;;;;24.23;9.75;;;9.10;99.90;;;;;;5030963;28;20026;-76
2022/10/19 00:52:06;;;;;;;9.82;8.82;;;9.10;99.90;;;;;;5036826;28;20083;-76
2022/10/19 00:54:35;;;;;;;8.80;7.97;;;9.10;99.90;;;;;;5033613;28;20043;-76
2022/10/19 00:57:02;;;;;;;7.93;7.13;;;9.10;99.90;;;;;;5031958;28;20028;-76
2022/10/19 00:59:32;;;;;;;27.05;8.02;;;9.10;99.90;;;;;;5031686;28;20263;-76
2022/10/19 01:01:58;;;;;;;8.75;7.70;;;9.10;99.90;;;;;;5035950;28;20477;-76
2022/10/19 01:04:25;;;;;;;10.60;8.10;;;9.10;99.90;;;;;;5033823;28;20033;-76
2022/10/19 01:06:53;;;;;;;32.55;8.13;;;9.10;99.90;;;;;;5036115;28;20094;-75
2022/10/19 01:09:19;;;;;;;16.77;8.15;;;9.10;99.90;;;;;;5035329;28;20029;-76
2022/10/19 01:12:14;;;;;;;9.32;7.30;;;9.10;99.90;;;;;;5037085;28;20017;-75
2022/10/19 01:14:50;;;;;;;13.15;8.05;;;9.00;99.90;;;;;;5040304;28;20043;-76
2022/10/19 01:17:27;;;;;;;47.58;8.68;;;9.00;99.90;;;;;;5032234;28;20523;-77
2022/10/19 01:20:19;;;;;;;18.02;8.82;;;9.00;99.90;;;;;;5033304;28;20046;-75
2022/10/19 01:23:22;;;;;;;17.45;9.07;;;9.10;99.90;;;;;;5032507;28;20040;-75
2022/10/19 01:26:03;;;;;;;20.75;9.68;;;9.00;99.90;;;;;;5027573;28;20146;-75
2022/10/19 01:28:57;;;;;;;13.13;8.73;;;9.00;99.90;;;;;;5030885;28;20080;-76
2022/10/19 01:31:46;;;;;;;10.30;8.98;;;9.00;99.90;;;;;;5035395;28;20032;-76
2022/10/19 01:34:26;;;;;;;11.93;9.38;;;9.00;99.90;;;;;;5028276;28;20033;-76
2022/10/19 01:37:07;;;;;;;19.50;8.40;;;9.10;99.90;;;;;;5028909;28;20068;-76
2022/10/19 01:39:53;;;;;;;12.55;7.85;;;9.00;99.90;;;;;;5033204;28;20482;-76
2022/10/19 01:42:25;;;;;;;9.48;7.10;;;8.90;99.90;;;;;;5026300;28;20025;-77
2022/10/19 01:45:08;;;;;;;7.85;7.05;;;8.90;99.90;;;;;;5035018;28;20021;-76
2022/10/19 01:47:45;;;;;;;7.63;6.93;;;9.00;99.90;;;;;;5036606;28;20040;-77
2022/10/19 01:50:26;;;;;;;8.07;7.25;;;9.00;99.90;;;;;;5036030;28;20021;-76
2022/10/19 01:52:54;;;;;;;12.82;7.95;;;9.00;99.90;;;;;;5031190;28;20067;-76
2022/10/19 01:55:21;;;;;;;9.13;7.30;;;9.00;99.90;;;;;;5031998;28;21081;-76
2022/10/19 01:57:55;;;;;;;15.43;7.28;;;9.00;99.90;;;;;;5030821;28;20641;-76
2022/10/19 02:00:23;;;;;;;9.75;6.88;;;9.00;99.90;;;;;;5031030;28;20421;-76
2022/10/19 02:02:52;;;;;;;8.07;7.32;;;9.00;99.90;;;;;;5032029;28;20025;-76
2022/10/19 02:05:22;;;;;;;6.80;6.13;;;9.00;99.90;;;;;;5032248;28;20100;-77
2022/10/19 02:07:56;;;;;;;7.32;5.55;;;9.00;99.90;;;;;;5028028;28;20102;-76
2022/10/19 02:10:23;;;;;;;7.97;5.78;;;9.00;99.90;;;;;;5028951;28;20761;-76
2022/10/19 02:12:51;;;;;;;7.78;5.95;;;8.90;99.90;;;;;;5032073;28;20037;-76
2022/10/19 02:15:21;;;;;;;39.58;6.00;;;8.90;99.90;;;;;;5038945;28;20087;-76
2022/10/19 02:17:50;;;;;;;29.98;6.18;;;8.90;99.90;;;;;;5034809;28;20033;-76
2022/10/19 02:20:16;;;;;;;29.92;5.78;;;8.80;99.90;;;;;;5035515;28;20291;-76
2022/10/19 02:22:42;;;;;;;10.18;5.30;;;8.90;99.90;;;;;;5030310;28;20072;-76
2022/10/19 02:25:09;;;;;;;6.90;4.95;;;8.80;99.90;;;;;;5027437;28;20436;-76
2022/10/19 02:27:38;;;;;;;41.03;5.05;;;8.80;99.90;;;;;;5031741;28;20167;-76
2022/10/19 02:30:05;;;;;;;5.80;4.40;;;8.80;99.90;;;;;;5036587;28;20049;-76
2022/10/19 02:32:30;;;;;;;27.58;5.60;;;8.70;99.90;;;;;;5030165;28;20025;-76
2022/10/19 02:34:56;;;;;;;22.15;5.70;;;8.80;99.90;;;;;;5033028;28;20874;-76
2022/10/19 02:37:23;;;;;;;9.45;5.45;;;8.90;99.90;;;;;;5033235;28;20036;-76
2022/10/19 02:39:48;;;;;;;44.72;5.28;;;8.90;99.90;;;;;;5042977;28;20037;-76
2022/10/19 02:42:21;;;;;;;23.80;5.18;;;9.00;99.90;;;;;;5035158;28;20024;-76
2022/10/19 02:44:50;;;;;;;9.57;5.30;;;9.10;99.90;;;;;;5028757;28;20079;-75
2022/10/19 02:47:24;;;;;;;50.90;6.78;;;9.10;99.90;;;;;;5032964;28;20060;-75
2022/10/19 02:49:51;;;;;;;19.80;6.03;;;9.20;99.90;;;;;;5031671;28;20032;-75
2022/10/19 02:52:17;;;;;;;27.67;5.55;;;9.20;99.90;;;;;;5040130;28;20032;-75
2022/10/19 02:54:44;;;;;;;28.35;6.07;;;9.20;99.90;;;;;;5033138;28;20033;-76
2022/10/19 02:57:18;;;;;;;15.95;6.10;;;9.20;99.90;;;;;;5035396;28;20400;-76
2022/10/19 02:59:45;;;;;;;47.13;7.28;;;9.20;99.90;;;;;;5034766;28;20021;-75
2022/10/19 03:02:11;;;;;;;22.48;7.00;;;9.20;99.90;;;;;;5028421;28;20032;-75
2022/10/19 03:04:36;;;;;;;10.65;6.50;;;9.20;99.90;;;;;;5039589;28;20033;-76
2022/10/19 03:07:02;;;;;;;11.27;6.63;;;9.30;99.90;;;;;;5033074;28;20037;-74
2022/10/19 03:09:28;;;;;;;15.60;7.13;;;9.30;99.90;;;;;;5024715;28;20061;-75
2022/10/19 03:11:56;;;;;;;12.85;6.63;;;9.30;99.90;;;;;;5032375;28;20025;-75
2022/10/19 03:14:22;;;;;;;27.23;6.97;;;9.40;99.90;;;;;;5036286;28;20083;-75
2022/10/19 03:16:47;;;;;;;39.53;6.70;;;9.50;99.90;;;;;;5035118;28;20087;-75
2022/10/19 03:19:13;;;;;;;15.80;6.50;;;9.50;99.90;;;;;;5029837;28;20426;-75
2022/10/19 03:21:39;;;;;;;25.83;6.32;;;9.50;99.90;;;;;;5027555;28;20033;-75
2022/10/19 03:24:04;;;;;;;9.45;6.22;;;9.60;99.90;;;;;;5025593;28;20052;-75
2022/10/19 03:26:30;;;;;;;14.10;6.38;;;9.60;99.90;;;;;;5033447;28;20017;-75
2022/10/19 03:28:56;;;;;;;9.10;6.28;;;9.60;99.90;;;;;;5027361;28;20591;-74
2022/10/19 03:31:21;;;;;;;10.65;6.70;;;9.60;99.90;;;;;;5026724;28;20088;-75
2022/10/19 03:33:47;;;;;;;13.13;5.82;;;9.60;99.90;;;;;;5030325;28;20393;-74
2022/10/19 03:36:28;;;;;;;17.58;6.65;;;9.60;99.90;;;;;;5024914;28;20562;-74
2022/10/19 03:38:59;;;;;;;13.98;6.53;;;9.60;99.90;;;;;;5031287;28;20091;-74
2022/10/19 03:41:28;;;;;;;23.75;6.70;;;9.60;99.90;;;;;;5025554;28;20026;-74
2022/10/19 03:43:53;;;;;;;11.45;6.97;;;9.60;99.90;;;;;;5033200;28;20037;-75
2022/10/19 03:46:20;;;;;;;7.10;6.35;;;9.50;99.90;;;;;;5026606;28;20526;-75
2022/10/19 03:48:45;;;;;;;19.92;6.90;;;9.50;99.90;;;;;;5029461;28;20554;-74
2022/10/19 03:51:17;;;;;;;14.25;6.22;;;9.50;99.90;;;;;;5035576;28;20029;-74
2022/10/19 03:53:43;;;;;;;59.58;7.47;;;9.50;99.90;;;;;;5025249;28;20044;-75
2022/10/19 03:56:16;;;;;;;33.40;7.05;;;9.40;99.90;;;;;;5041487;28;20455;-74
2022/10/19 03:58:43;;;;;;;11.75;6.35;;;9.30;99.90;;;;;;5027931;28;20041;-74
2022/10/19 04:01:11;;;;;;;10.88;6.00;;;9.30;99.90;;;;;;5026090;28;20465;-74
2022/10/19 04:03:37;;;;;;;7.93;6.47;;;9.30;99.90;;;;;;5024543;28;22272;-75
2022/10/19 04:06:05;;;;;;;7.55;6.45;;;9.30;99.90;;;;;;5029064;28;20040;-74
2022/10/19 04:08:30;;;;;;;8.18;6.78;;;9.30;99.90;;;;;;5026569;28;20029;-75
2022/10/19 04:11:00;;;;;;;9.75;6.63;;;9.40;99.90;;;;;;5029249;28;20050;-74
2022/10/19 04:13:26;;;;;;;16.48;6.82;;;9.30;99.90;;;;;;5026411;28;20087;-74
2022/10/19 04:15:51;;;;;;;11.05;5.90;;;9.30;99.90;;;;;;5037311;28;20033;-75
2022/10/19 04:18:17;;;;;;;18.13;6.82;;;9.20;99.90;;;;;;5032999;28;20032;-75
2022/10/19 04:20:42;;;;;;;28.45;6.78;;;9.20;99.90;;;;;;5025174;28;20496;-74
2022/10/19 04:23:08;;;;;;;7.32;6.00;;;9.20;99.90;;;;;;5029056;28;20029;-75
2022/10/19 04:25:34;;;;;;;36.40;6.47;;;9.00;99.90;;;;;;5021528;28;20474;-74
2022/10/19 04:27:59;;;;;;;18.15;6.60;;;9.00;99.90;;;;;;5024015;28;20495;-75
2022/10/19 04:30:25;;;;;;;10.23;7.10;;;8.90;99.90;;;;;;5020030;28;20529;-75
2022/10/19 04:32:51;;;;;;;7.30;6.43;;;9.00;99.90;;;;;;5022553;28;20094;-75
2022/10/19 04:35:16;;;;;;;7.20;6.22;;;9.10;99.90;;;;;;5029764;28;20133;-75
2022/10/19 04:37:42;;;;;;;94.38;7.05;;;9.10;99.90;;;;;;5036826;28;20465;-75
2022/10/19 04:40:09;;;;;;;28.45;6.05;;;9.10;99.90;;;;;;5030475;28;20025;-74
2022/10/19 04:42:34;;;;;;;14.55;6.43;;;9.10;99.90;;;;;;5029118;28;20033;-75
2022/10/19 04:45:00;;;;;;;14.00;5.95;;;9.10;99.90;;;;;;5031067;28;20695;-75
2022/10/19 04:47:27;;;;;;;22.65;5.88;;;9.20;99.90;;;;;;5030525;28;20114;-75
2022/10/19 04:49:52;;;;;;;7.25;6.30;;;9.20;99.90;;;;;;5029444;28;20420;-75
2022/10/19 04:52:18;;;;;;;15.27;6.18;;;9.10;99.90;;;;;;5027911;28;20104;-74
2022/10/19 04:54:45;;;;;;;9.48;6.18;;;9.20;99.90;;;;;;5027813;28;20033;-74
2022/10/19 04:57:10;;;;;;;12.45;6.43;;;9.20;99.90;;;;;;5034223;28;20068;-74
2022/10/19 04:59:36;;;;;;;10.18;6.53;;;9.20;99.90;;;;;;5035523;28;20492;-74
2022/10/19 05:02:02;;;;;;;11.65;6.53;;;9.20;99.90;;;;;;5030923;28;20024;-74
2022/10/19 05:04:27;;;;;;;12.60;6.60;;;9.20;99.90;;;;;;5038451;28;20036;-75
2022/10/19 05:06:53;;;;;;;27.63;7.30;;;9.20;99.90;;;;;;5040224;28;20039;-74
2022/10/19 05:09:18;;;;;;;43.08;7.28;;;9.20;99.90;;;;;;5036909;28;20033;-74
2022/10/19 05:11:44;;;;;;;23.13;7.57;;;9.20;99.90;;;;;;5028996;28;20503;-74
2022/10/19 05:14:10;;;;;;;61.28;8.55;;;9.20;99.90;;;;;;5025856;28;20038;-74
2022/10/19 05:16:35;;;;;;;87.28;9.27;;;9.20;99.90;;;;;;5033955;28;20032;-74
2022/10/19 05:19:01;;;;;;;69.22;9.00;;;9.20;99.90;;;;;;5031381;28;20036;-74
2022/10/19 05:21:28;;;;;;;32.08;8.45;;;9.20;99.90;;;;;;5025845;28;20095;-75
2022/10/19 05:23:55;;;;;;;22.80;8.05;;;9.10;99.90;;;;;;5035316;28;20037;-74
2022/10/19 05:26:23;;;;;;;113.65;9.95;;;9.10;99.90;;;;;;5031745;28;20159;-74
2022/10/19 05:28:55;;;;;;;28.58;8.68;;;9.10;99.90;;;;;;5036850;28;20401;-75
2022/10/19 05:31:22;;;;;;;32.67;8.70;;;9.10;99.90;;;;;;5032490;28;20112;-74
2022/10/19 05:33:48;;;;;;;40.00;8.93;;;9.20;99.90;;;;;;5030060;28;20630;-74
2022/10/19 05:36:17;;;;;;;24.48;8.27;;;9.20;99.90;;;;;;5032160;28;20052;-74
2022/10/19 05:38:44;;;;;;;25.13;8.05;;;9.20;99.90;;;;;;5033777;28;20799;-75
2022/10/19 05:41:11;;;;;;;18.92;8.77;;;9.20;99.90;;;;;;5026772;28;20037;-74
2022/10/19 05:43:37;;;;;;;84.68;9.40;;;9.20;99.90;;;;;;5035234;28;20037;-74
2022/10/19 05:46:05;;;;;;;21.38;8.85;;;9.20;99.90;;;;;;5036828;28;20501;-74
2022/10/19 05:48:32;;;;;;;52.65;9.23;;;9.20;99.90;;;;;;5030918;28;20025;-75
2022/10/19 05:51:00;;;;;;;25.17;8.75;;;9.20;99.90;;;;;;5031427;28;20064;-75
2022/10/19 05:53:26;;;;;;;21.98;8.50;;;9.20;99.90;;;;;;5026977;28;20029;-75
2022/10/19 05:55:52;;;;;;;17.88;9.23;;;9.20;99.90;;;;;;5034361;28;20060;-75
2022/10/19 05:58:18;;;;;;;24.05;8.70;;;9.20;99.90;;;;;;5031827;28;20053;-75
2022/10/19 06:00:50;;;;;;;11.57;8.57;;;9.20;99.90;;;;;;5032631;28;20036;-74
2022/10/19 06:03:16;;;;;;;28.85;8.93;;;9.20;99.90;;;;;;5028626;28;20032;-74
2022/10/19 06:05:42;;;;;;;59.15;8.95;;;9.20;99.90;;;;;;5035775;28;20040;-74
2022/10/19 06:08:08;;;;;;;9.57;8.05;;;9.20;99.90;;;;;;5030336;28;21326;-73
2022/10/19 06:10:34;;;;;;;31.55;9.23;;;9.20;99.90;;;;;;5029061;28;20717;-74
2022/10/19 06:12:59;;;;;;;10.02;8.63;;;9.20;99.90;;;;;;5031050;28;20385;-74
2022/10/19 06:15:25;;;;;;;14.10;8.30;;;9.20;99.90;;;;;;5030318;28;20026;-74
2022/10/19 06:17:50;;;;;;;11.60;8.13;;;9.20;99.90;;;;;;5028925;28;20032;-74
2022/10/19 06:20:16;;;;;;;9.05;8.10;;;9.20;99.90;;;;;;5029498;28;20649;-74
2022/10/19 06:22:42;;;;;;;9.50;8.07;;;9.20;99.90;;;;;;5029180;28;20148;-75
2022/10/19 06:25:08;;;;;;;12.63;8.43;;;9.20;99.90;;;;;;5028882;28;20358;-74
2022/10/19 06:27:33;;;;;;;9.32;8.32;;;9.20;99.90;;;;;;5032103;28;20021;-74
2022/10/19 06:29:59;;;;;;;15.48;8.95;;;9.20;99.90;;;;;;5027618;28;20553;-74
2022/10/19 06:32:25;;;;;;;10.52;8.70;;;9.20;99.90;;;;;;5029239;28;20037;-74
2022/10/19 06:34:50;;;;;;;10.48;8.00;;;9.20;99.90;;;;;;5028805;28;20105;-74
2022/10/19 06:37:16;;;;;;;10.52;9.07;;;9.30;99.90;;;;;;5033090;28;20043;-74
2022/10/19 06:39:42;;;;;;;10.90;9.43;;;9.30;99.90;;;;;;5034185;28;20036;-75
2022/10/19 06:42:08;;;;;;;12.80;9.13;;;9.30;99.90;;;;;;5028782;28;20040;-74
2022/10/19 06:44:34;;;;;;;23.50;10.02;;;9.40;99.90;;;;;;5031179;28;20284;-74
2022/10/19 06:46:59;;;;;;;20.08;10.73;;;9.40;99.90;;;;;;5025999;28;20104;-75
2022/10/19 06:49:25;;;;;;;19.55;11.30;;;9.40;99.90;;;;;;5035074;28;20025;-75
2022/10/19 06:51:50;;;;;;;36.38;11.70;;;9.50;99.90;;;;;;5033599;28;20025;-75
2022/10/19 06:54:16;;;;;;;23.42;11.30;;;9.50;99.90;;;;;;5030086;28;20113;-75
2022/10/19 06:56:42;;;;;;;23.80;10.90;;;9.50;99.90;;;;;;5029358;28;20116;-74
2022/10/19 06:59:07;;;;;;;16.45;11.30;;;9.50;99.90;;;;;;5038546;28;20090;-75
2022/10/19 07:01:33;;;;;;;39.60;11.63;;;9.60;99.90;;;;;;5034544;28;20555;-75
2022/10/19 07:03:59;;;;;;;25.60;10.55;;;9.60;99.90;;;;;;5033995;28;20029;-75
2022/10/19 07:06:26;;;;;;;25.17;11.60;;;9.70;99.90;;;;;;5034636;28;20032;-75
2022/10/19 07:08:52;;;;;;;17.75;11.13;;;9.70;99.90;;;;;;5032507;28;20025;-75
2022/10/19 07:11:21;;;;;;;13.23;10.48;;;9.70;99.90;;;;;;5032725;28;20091;-74
2022/10/19 07:13:46;;;;;;;29.50;11.73;;;9.70;99.90;;;;;;5035002;28;20083;-75
2022/10/19 07:16:14;;;;;;;13.77;10.65;;;9.70;99.90;;;;;;5028237;28;20048;-74
2022/10/19 07:18:41;;;;;;;18.15;10.82;;;9.70;99.90;;;;;;5026969;28;20115;-75
2022/10/19 07:21:12;;;;;;;22.85;11.70;;;9.70;99.90;;;;;;5025750;28;20021;-74
2022/10/19 07:23:40;;;;;;;22.80;11.70;;;9.70;99.90;;;;;;5026070;28;20025;-73
2022/10/19 07:26:10;;;;;;;13.45;10.93;;;9.70;99.90;;;;;;5028250;28;20088;-73
2022/10/19 07:28:37;;;;;;;15.43;10.77;;;9.70;99.90;;;;;;5034590;28;20651;-74
2022/10/19 07:31:11;;;;;;;14.80;11.45;;;9.80;99.90;;;;;;5034721;28;20083;-73
2022/10/19 07:33:37;;;;;;;15.75;10.77;;;9.80;99.90;;;;;;5029542;28;20108;-73
2022/10/19 07:36:06;;;;;;;14.75;11.40;;;9.80;99.90;;;;;;5033276;28;20175;-73
2022/10/19 07:38:33;;;;;;;22.48;11.93;;;9.80;99.90;;;;;;5034711;28;20382;-73
2022/10/19 07:41:00;;;;;;;20.13;12.68;;;9.80;99.90;;;;;;5031814;28;20017;-74
2022/10/19 07:43:26;;;;;;;21.00;13.38;;;9.80;99.90;;;;;;5029985;28;20030;-74
2022/10/19 07:46:06;;;;;;;14.43;11.25;;;9.80;99.90;;;;;;5031633;28;20033;-73
2022/10/19 07:48:34;;;;;;;17.45;12.95;;;9.80;99.90;;;;;;5032660;28;20457;-74
2022/10/19 07:51:01;;;;;;;16.55;12.60;;;9.90;99.90;;;;;;5025519;28;20025;-73
2022/10/19 07:53:27;;;;;;;15.55;12.07;;;9.90;99.90;;;;;;5025136;28;20045;-74
2022/10/19 07:55:53;;;;;;;19.25;12.65;;;10.00;99.90;;;;;;5027891;28;20026;-74
2022/10/19 07:58:18;;;;;;;16.48;12.13;;;10.10;99.90;;;;;;5033503;28;20633;-74
2022/10/19 08:00:44;;;;;;;15.77;11.75;;;10.00;99.90;;;;;;5029958;28;20029;-74
2022/10/19 08:03:10;;;;;;;17.33;12.48;;;10.10;99.90;;;;;;5031375;28;20431;-74
2022/10/19 08:05:36;;;;;;;16.90;11.55;;;10.10;99.90;;;;;;5024202;28;20033;-74
2022/10/19 08:08:02;;;;;;;18.58;11.70;;;10.10;99.90;;;;;;5030100;28;20021;-74
2022/10/19 08:10:28;;;;;;;17.63;12.85;;;10.10;99.90;;;;;;5031599;28;20147;-74
2022/10/19 08:12:53;;;;;;;18.95;11.80;;;10.10;99.90;;;;;;5034431;28;20381;-74
2022/10/19 08:15:19;;;;;;;18.48;12.77;;;10.10;99.90;;;;;;5027767;28;20029;-74
2022/10/19 08:17:44;;;;;;;16.27;10.68;;;10.10;99.90;;;;;;5034670;28;20037;-74
2022/10/19 08:20:10;;;;;;;16.60;12.18;;;10.10;99.90;;;;;;5029915;28;20029;-74
2022/10/19 08:22:36;;;;;;;18.30;11.80;;;10.20;99.90;;;;;;5029548;28;20044;-74
2022/10/19 08:25:01;;;;;;;20.15;12.65;;;10.20;99.90;;;;;;5025278;28;20033;-74
2022/10/19 08:27:28;;;;;;;16.33;11.20;;;10.30;99.90;;;;;;5028012;28;20062;-73
2022/10/19 08:29:53;;;;;;;18.70;11.07;;;10.30;99.90;;;;;;5028117;28;20034;-73
2022/10/19 08:32:19;;;;;;;18.63;11.80;;;10.40;99.90;;;;;;5026704;28;20433;-73
2022/10/19 08:34:45;;;;;;;19.65;11.88;;;10.50;99.90;;;;;;5034326;28;20025;-73
2022/10/19 08:37:11;;;;;;;15.07;10.75;;;10.70;99.90;;;;;;5027022;28;20055;-73
2022/10/19 08:39:37;;;;;;;15.38;10.30;;;10.90;99.90;;;;;;5034792;28;20036;-72
2022/10/19 08:42:09;;;;;;;16.70;11.00;;;11.10;99.90;;;;;;5030195;28;20032;-73
2022/10/19 08:45:21;;;;;;;16.63;10.43;;;11.20;99.90;;;;;;5031783;28;20033;-74
2022/10/19 08:47:49;;;;;;;17.90;10.27;;;11.40;99.90;;;;;;5038910;28;20242;-74
2022/10/19 08:50:22;;;;;;;16.67;11.02;;;11.60;99.90;;;;;;5038247;28;20582;-74
2022/10/19 08:53:15;;;;;;;15.18;10.77;;;11.70;99.90;;;;;;5026715;28;20033;-74
2022/10/19 08:56:07;;;;;;;15.02;9.68;;;11.80;99.90;;;;;;5029760;28;20079;-74
2022/10/19 08:58:55;;;;;;;17.90;10.32;;;11.80;99.90;;;;;;5037755;28;20090;-74
2022/10/19 09:01:33;;;;;;;16.50;10.38;;;11.90;99.90;;;;;;5031608;28;20055;-74
2022/10/19 09:04:05;;;;;;;16.30;10.55;;;12.00;99.90;;;;;;5031502;28;20705;-84
2022/10/19 09:06:42;;;;;;;14.30;9.68;;;12.10;99.90;;;;;;5029001;28;20555;-83
2022/10/19 09:09:14;;;;;;;14.80;9.32;;;12.20;99.90;;;;;;5035242;28;20447;-83
2022/10/19 09:11:46;;;;;;;13.77;9.38;;;12.20;99.90;;;;;;5026341;28;20029;-83
2022/10/19 09:14:21;;;;;;;17.60;10.40;;;12.30;99.90;;;;;;5028057;28;20037;-83
2022/10/19 09:16:47;;;;;;;14.63;10.18;;;12.40;99.90;;;;;;5033589;28;20068;-83
2022/10/19 09:19:28;;;;;;;15.95;9.48;;;12.60;99.90;;;;;;5031983;28;20036;-83
2022/10/19 09:21:57;;;;;;;14.88;9.93;;;12.50;99.90;;;;;;5034615;28;20018;-82
2022/10/19 09:24:34;;;;;;;15.45;9.80;;;12.70;99.90;;;;;;5039957;28;20028;-82
2022/10/19 09:27:01;;;;;;;11.48;8.55;;;13.00;99.90;;;;;;5040647;28;20013;-83
2022/10/19 09:29:40;;;;;;;11.82;8.27;;;13.10;99.90;;;;;;5043359;28;20051;-83
2022/10/19 09:32:14;;;;;;;12.82;8.32;;;13.30;99.90;;;;;;5045768;28;20118;-83
2022/10/19 09:34:49;;;;;;;12.80;8.50;;;13.50;99.90;;;;;;5037695;28;20046;-83
2022/10/19 09:37:15;;;;;;;13.23;8.10;;;13.60;99.90;;;;;;5047700;28;20068;-83
2022/10/19 09:39:41;;;;;;;12.40;7.38;;;13.70;99.90;;;;;;5043845;28;20038;-82
2022/10/19 09:42:21;;;;;;;11.85;7.40;;;13.90;99.90;;;;;;5050803;28;20446;-82
2022/10/19 09:44:49;;;;;;;12.90;8.68;;;14.00;99.90;;;;;;5042648;28;20111;-82
2022/10/19 09:47:34;;;;;;;11.35;8.30;;;;;;;;;;5032351;28;20025;-84
2022/10/19 09:50:25;;;;;;;15.35;8.43;;;14.10;99.90;;;;;;5047142;28;20016;-83
2022/10/19 09:52:55;;;;;;;16.95;8.35;;;14.10;99.90;;;;;;5050343;28;20031;-83
2022/10/19 09:55:40;;;;;;;12.05;7.90;;;14.20;99.90;;;;;;5038538;28;20025;-82
2022/10/19 09:58:12;;;;;;;15.63;7.70;;;14.30;99.90;;;;;;5032405;28;20101;-83
2022/10/19 10:00:58;;;;;;;10.85;7.50;;;14.40;99.90;;;;;;5030124;28;20494;-83
2022/10/19 10:03:42;;;;;;;10.80;7.22;;;14.50;99.90;;;;;;5037574;28;20043;-83
2022/10/19 10:06:07;;;;;;;9.95;6.45;;;14.30;99.90;;;;;;5032511;28;20045;-83
2022/10/19 10:08:36;;;;;;;9.43;6.40;;;14.10;99.90;;;;;;5028403;28;20608;-84
2022/10/19 10:11:15;;;;;;;10.90;5.93;;;14.10;99.90;;;;;;5033905;28;20453;-83
2022/10/19 10:13:48;;;;;;;11.93;7.25;;;14.20;99.90;;;;;;5038494;28;20124;-82
2022/10/19 10:16:15;;;;;;;;;;;14.30;99.90;;;;;;5028838;28;20041;-84
2022/10/19 10:18:52;;;;;;;14.07;7.15;;;14.20;99.90;;;;;;5035590;28;20344;-85
2022/10/19 10:21:34;;;;;;;11.27;7.15;;;14.20;99.90;;;;;;5038052;28;20026;-84
2022/10/19 10:24:15;;;;;;;12.10;6.75;;;14.10;99.90;;;;;;5035940;28;20037;-83
2022/10/19 10:27:02;;;;;;;9.63;4.95;;;14.00;99.90;;;;;;5029683;28;20028;-82
2022/10/19 10:29:33;;;;;;;9.52;4.85;;;14.00;99.90;;;;;;5037615;28;20548;-83
2022/10/19 10:32:20;;;;;;;8.30;4.35;;;13.90;99.90;;;;;;5042206;28;20036;-82
2022/10/19 10:35:05;;;;;;;6.47;3.65;;;13.80;99.90;;;;;;5025965;28;20025;-81
2022/10/19 10:37:38;;;;;;;3.75;2.60;;;13.60;99.90;;;;;;5039910;28;20033;-82
2022/10/19 10:40:05;;;;;;;10.40;4.15;;;13.40;99.90;;;;;;5036419;28;20063;-82
2022/10/19 10:42:42;;;;;;;6.57;3.65;;;13.30;99.90;;;;;;5031543;28;20040;-82
2022/10/19 10:45:24;;;;;;;8.25;5.57;;;13.30;99.90;;;;;;5026862;28;20040;-81
2022/10/19 10:47:51;;;;;;;9.75;5.03;;;13.40;99.90;;;;;;5024989;28;20088;-82
2022/10/19 10:50:22;;;;;;;10.30;6.43;;;13.50;99.90;;;;;;5028763;28;20021;-84
2022/10/19 10:53:04;;;;;;;10.48;5.93;;;13.50;99.90;;;;;;5024799;28;20025;-83
2022/10/19 10:55:30;;;;;;;8.88;5.85;;;13.40;99.90;;;;;;5029912;28;20026;-83
2022/10/19 10:58:30;;;;;;;8.68;4.82;;;13.50;99.90;;;;;;5030702;28;20029;-84
2022/10/19 11:00:56;;;;;;;3.83;2.50;;;;;;;;;;5042045;28;20040;-82
2022/10/19 11:03:27;;;;;;;8.10;3.55;;;13.60;99.90;;;;;;5034585;28;20366;-83
2022/10/19 11:05:58;;;;;;;7.03;4.13;;;13.60;99.90;;;;;;5035793;28;20142;-83
2022/10/19 11:08:43;;;;;;;6.82;3.30;;;13.60;99.90;;;;;;5041658;28;20029;-83
2022/10/19 11:11:38;;;;;;;9.52;3.70;;;13.70;99.90;;;;;;5041779;28;20036;-83
2022/10/19 11:14:31;;;;;;;7.10;5.10;;;13.70;99.90;;;;;;5034339;28;20028;-83
2022/10/19 11:17:03;;;;;;;10.25;3.65;;;13.70;99.90;;;;;;5029985;28;20102;-83
2022/10/19 11:19:39;;;;;;;6.43;2.78;;;13.70;99.90;;;;;;5037892;28;20033;-83
2022/10/19 11:22:16;;;;;;;6.32;3.20;;;13.70;99.90;;;;;;5035928;28;20033;-84
2022/10/19 11:24:56;;;;;;;7.50;3.63;;;13.80;99.90;;;;;;5028341;28;20133;-83
2022/10/19 11:27:40;;;;;;;6.57;3.92;;;13.80;99.90;;;;;;5028409;28;20521;-83
2022/10/19 11:30:19;;;;;;;8.38;3.83;;;13.90;99.90;;;;;;5037708;28;20078;-84
2022/10/19 11:33:28;;;;;;;7.97;3.85;;;13.90;99.90;;;;;;5026819;28;20056;-84
2022/10/19 11:36:00;;;;;;;4.68;2.85;;;14.10;99.90;;;;;;5037337;28;20253;-83
2022/10/19 11:38:48;;;;;;;8.38;3.50;;;14.20;99.90;;;;;;5038868;28;20025;-84
2022/10/19 11:41:44;;;;;;;7.07;3.50;;;14.30;99.90;;;;;;5035313;28;20025;-84
2022/10/19 11:44:37;;;;;;;6.97;3.45;;;14.40;99.90;;;;;;5021692;28;20036;-84
2022/10/19 11:47:28;;;;;;;6.65;3.47;;;14.30;99.90;;;;;;5029446;28;20496;-81
2022/10/19 11:50:19;;;;;;;6.50;3.33;;;14.20;99.90;;;;;;5030718;28;20034;-84
2022/10/19 11:53:10;;;;;;;7.10;3.17;;;14.10;99.90;;;;;;5028346;28;20033;-84
2022/10/19 11:56:07;;;;;;;5.32;3.25;;;14.00;99.90;;;;;;5034283;28;20028;-83
2022/10/19 11:58:56;;;;;;;4.32;2.75;;;13.80;99.90;;;;;;5029321;28;20600;-85
2022/10/19 12:02:04;;;;;;;5.10;2.63;;;13.80;99.90;;;;;;5030912;28;20029;-86
2022/10/19 12:04:50;;;;;;;3.92;2.30;;;13.80;99.90;;;;;;5031696;28;20524;-85
2022/10/19 12:07:42;;;;;;;3.78;2.00;;;13.90;99.90;;;;;;5032957;28;20029;-85
2022/10/19 12:10:10;;;;;;;4.43;2.15;;;14.00;99.90;;;;;;5034613;28;20027;-85
2022/10/19 12:12:47;;;;;;;4.88;2.30;;;14.20;99.90;;;;;;5034384;28;20028;-86
2022/10/19 12:15:37;;;;;;;5.85;1.45;;;14.40;99.90;;;;;;5037291;28;20026;-85
2022/10/19 12:18:17;;;;;;;4.40;1.48;;;14.60;99.90;;;;;;5033002;28;20030;-84
2022/10/19 12:20:54;;;;;;;6.03;1.50;;;14.70;99.90;;;;;;5032390;28;20033;-86
2022/10/19 12:23:34;;;;;;;6.03;1.40;;;14.70;99.90;;;;;;5030343;28;20041;-86
2022/10/19 12:26:02;;;;;;;2.58;1.40;;;14.70;99.90;;;;;;5038242;28;20029;-85
2022/10/19 12:28:32;;;;;;;5.13;1.80;;;14.80;99.90;;;;;;5038475;28;20028;-86
2022/10/19 12:31:00;;;;;;;3.90;1.60;;;14.80;99.90;;;;;;5040494;28;20041;-83
2022/10/19 12:33:45;;;;;;;4.20;1.35;;;14.90;99.90;;;;;;5029078;28;20033;-83
2022/10/19 12:36:23;;;;;;;4.50;1.42;;;14.90;99.90;;;;;;5024171;28;20045;-83
2022/10/19 12:38:59;;;;;;;2.40;1.45;;;15.00;99.90;;;;;;5028172;28;20116;-83
2022/10/19 12:41:33;;;;;;;3.53;1.40;;;14.90;99.90;;;;;;5026051;28;20840;-85
2022/10/19 12:44:25;;;;;;;3.05;1.05;;;14.80;99.90;;;;;;5025767;28;20036;-87
2022/10/19 12:46:58;;;;;;;4.43;1.25;;;14.70;99.90;;;;;;5041695;28;20037;-85
2022/10/19 12:49:30;;;;;;;5.95;1.20;;;14.70;99.90;;;;;;5037269;28;20033;-85
2022/10/19 12:51:59;;;;;;;5.00;1.23;;;14.70;99.90;;;;;;5034619;28;20040;-82
2022/10/19 12:54:31;;;;;;;3.25;1.30;;;14.70;99.90;;;;;;5037320;28;20036;-82
2022/10/19 12:57:00;;;;;;;5.45;1.60;;;14.60;99.90;;;;;;5028944;28;20029;-82
2022/10/19 12:59:35;;;;;;;5.03;1.25;;;14.50;99.90;;;;;;5030579;28;20716;-83
2022/10/19 13:02:04;;;;;;;4.10;1.38;;;14.30;99.90;;;;;;5035197;28;20724;-82
2022/10/19 13:04:34;;;;;;;4.00;1.17;;;14.20;99.90;;;;;;5029962;28;20087;-81
2022/10/19 13:07:03;;;;;;;5.15;1.35;;;14.10;99.90;;;;;;5030507;28;20025;-83